MSC Barbara — HODU — position and weather

sailwx.info

Track history (hours):
 
Tides and Currents Weather Stations Pressure Air Temp Water Temp Dewpoint Dewpoint Depression Visibility Wind Speed Wind Dir Waves Ship Positions

MSC Barbara

Last reported at 2015-Mar-01 05:23 UTC. Time now 2015-Mar-01 06:58 UTC.
Position S 29°53' E 031°01'.

Length 304 m; draft 8.2 m.

Type: Ship. MMSI: 353775000.

Date/timePositionNaut miles runAvg speedWind from/ knotsBaromVisibWave heightAir tempDewpointWater temp
2015-Mar-01 05:23S 29°53' E 031°01'0 0.0
2015-Mar-01 04:28S 29°53' E 031°01'0 0.0
2015-Mar-01 03:28S 29°53' E 031°01'0 0.0
2015-Mar-01 02:28S 29°53' E 031°01'0 0.0
2015-Mar-01 01:33S 29°53' E 031°01'0 0.0
2015-Mar-01 00:33S 29°53' E 031°01'0 0.0
2015-Feb-28 23:32S 29°53' E 031°01'0 0.0
2015-Feb-28 22:32S 29°53' E 031°01'0 0.0
2015-Feb-28 21:31S 29°53' E 031°01'0 0.0
2015-Feb-28 20:31S 29°53' E 031°01'0 0.0
2015-Feb-28 19:31S 29°53' E 031°01'0 0.0
2015-Feb-28 18:18S 29°53' E 031°01'0 0.0
2015-Feb-28 17:30S 29°53' E 031°01'0 0.0
2015-Feb-28 16:29S 29°53' E 031°01'0 0.0
2015-Feb-28 15:29S 29°53' E 031°01'0 0.0
2015-Feb-28 14:28S 29°53' E 031°01'0 0.0
2015-Feb-28 13:28S 29°53' E 031°01'0 0.0
2015-Feb-28 12:28S 29°53' E 031°01'0 0.0
2015-Feb-28 11:33S 29°53' E 031°01'0 0.0
2015-Feb-28 10:33S 29°53' E 031°01'0 0.0
2015-Feb-28 09:32S 29°53' E 031°01'0 0.0
2015-Feb-28 08:32S 29°53' E 031°01'0 0.0
2015-Feb-28 07:31S 29°53' E 031°01'0 0.0
2015-Feb-28 06:31S 29°53' E 031°01'0 0.0
2015-Feb-28 05:30S 29°53' E 031°01'0 0.0
2015-Feb-28 04:30S 29°53' E 031°01'0 0.0
2015-Feb-28 03:30S 29°53' E 031°01'0 0.0
2015-Feb-28 02:29S 29°53' E 031°01'0 0.0
2015-Feb-28 01:29S 29°53' E 031°01'0 0.0
2015-Feb-28 00:28S 29°53' E 031°01'0 0.0
2015-Feb-27 23:28S 29°53' E 031°01'0 0.0
2015-Feb-27 22:33S 29°53' E 031°01'0 0.0
2015-Feb-27 21:33S 29°53' E 031°01'0 0.0
2015-Feb-27 20:33S 29°53' E 031°01'0 0.0
2015-Feb-27 19:32S 29°53' E 031°01'0 0.0
2015-Feb-27 18:32S 29°53' E 031°01'0 0.0
2015-Feb-27 17:31S 29°53' E 031°01'0 0.0
2015-Feb-27 16:31S 29°53' E 031°01'0 0.0
2015-Feb-27 15:30S 29°53' E 031°01'0 0.1
2015-Feb-27 14:33S 29°53' E 031°01'0 0.4
2015-Feb-27 13:33S 29°53' E 031°01'0 0.0
2015-Feb-27 12:31S 29°53' E 031°01'0 0.0
2015-Feb-27 11:30S 29°53' E 031°01'0 0.0
2015-Feb-27 10:30S 29°53' E 031°01'0 0.0
2015-Feb-27 09:29S 29°53' E 031°01'0 0.0
2015-Feb-27 08:29S 29°53' E 031°01'0 0.0
2015-Feb-27 07:29S 29°53' E 031°01'0 0.0
2015-Feb-27 06:28S 29°53' E 031°01'0 0.0
2015-Feb-27 05:28S 29°53' E 031°01'0 0.0
2015-Feb-27 04:33S 29°53' E 031°01'0 0.0
2015-Feb-27 03:33S 29°53' E 031°01'0 0.0
2015-Feb-27 02:32S 29°53' E 031°01'0 0.0
2015-Feb-27 01:32S 29°53' E 031°01'0 0.0
2015-Feb-27 00:25S 29°53' E 031°01'0 0.0
2015-Feb-26 23:31S 29°53' E 031°01'0 0.0
2015-Feb-26 22:31S 29°53' E 031°01'0 0.0
2015-Feb-26 21:31S 29°53' E 031°01'0 0.0
2015-Feb-26 20:30S 29°53' E 031°01'0 0.0
2015-Feb-26 19:29S 29°53' E 031°01'0 0.0
2015-Feb-26 18:29S 29°53' E 031°01'0 0.0
2015-Feb-26 17:32S 29°53' E 031°01'0 0.0
2015-Feb-26 11:31S 29°53' E 031°01'0 0.0
2015-Feb-26 10:31S 29°53' E 031°01'0 0.0
2015-Feb-26 09:30S 29°53' E 031°01'0 0.0
2015-Feb-26 08:30S 29°53' E 031°01'0 0.0
2015-Feb-26 07:33S 29°53' E 031°01'4 4.4
2015-Feb-26 06:33S 29°50' E 031°05'3 3.0
2015-Feb-26 05:33S 29°50' E 031°08'4 4.3
2015-Feb-26 04:33S 29°55' E 031°08'1 1.4
2015-Feb-26 03:33S 29°54' E 031°09'1 1.3
2015-Feb-26 02:33S 29°53' E 031°10'1 1.2
2015-Feb-26 01:33S 29°52' E 031°11'1 1.2
2015-Feb-26 00:33S 29°51' E 031°12'1 1.2
2015-Feb-25 23:33S 29°50' E 031°13'1 1.0
2015-Feb-25 22:33S 29°50' E 031°14'1 0.7
2015-Feb-25 21:33S 29°50' E 031°15'0 0.4
2015-Feb-25 20:33S 29°49' E 031°16'2 1.7
2015-Feb-25 19:33S 29°50' E 031°14'6 6.3
2015-Feb-25 18:33S 29°56' E 031°11'3 3.1
2015-Feb-25 17:33S 29°59' E 031°10'1 1.4
2015-Feb-25 16:33S 29°58' E 031°11'1 1.3
2015-Feb-25 15:33S 29°57' E 031°12'1 1.4
2015-Feb-25 14:33S 29°56' E 031°13'1 1.5
2015-Feb-25 13:33S 29°55' E 031°14'2 1.5
2015-Feb-25 12:33S 29°54' E 031°15'1 1.5
2015-Feb-25 11:33S 29°52' E 031°16'1 1.0
2015-Feb-25 10:33S 29°52' E 031°15'1 1.2
2015-Feb-25 09:33S 29°52' E 031°14'4 3.7
2015-Feb-25 08:33S 29°56' E 031°11'2 1.8
2015-Feb-25 07:33S 29°54' E 031°12'2 1.5
2015-Feb-25 06:33S 29°53' E 031°13'2 1.6
2015-Feb-25 05:33S 29°51' E 031°14'1 1.3
2015-Feb-25 04:33S 29°50' E 031°15'1 1.0
2015-Feb-25 03:33S 29°51' E 031°14'1313.3
2015-Feb-25 02:33S 30°01' E 031°05'1515.5
2015-Feb-25 01:33S 30°16' E 030°59'34113.6
2015-Feb-24 00:29S 33°55' E 025°51'  
Track history (hours):
 
Tides and Currents Weather Stations Pressure Air Temp Water Temp Dewpoint Dewpoint Depression Visibility Wind Speed Wind Dir Waves Ship Positions

MSC Barbara

Last reported at 2015-Mar-01 05:23 UTC. Time now 2015-Mar-01 06:58 UTC.
Position S 29°53' E 031°01'.

Length 304 m; draft 8.2 m.

Type: Ship. MMSI: 353775000.

Date/timePositionNaut miles runAvg speedWind from/ knotsBaromVisibWave heightAir tempDewpointWater temp
2015-Mar-01 05:23S 29°53' E 031°01'0 0.0
2015-Mar-01 04:28S 29°53' E 031°01'0 0.0
2015-Mar-01 03:28S 29°53' E 031°01'0 0.0
2015-Mar-01 02:28S 29°53' E 031°01'0 0.0
2015-Mar-01 01:33S 29°53' E 031°01'0 0.0
2015-Mar-01 00:33S 29°53' E 031°01'0 0.0
2015-Feb-28 23:32S 29°53' E 031°01'0 0.0
2015-Feb-28 22:32S 29°53' E 031°01'0 0.0
2015-Feb-28 21:31S 29°53' E 031°01'0 0.0
2015-Feb-28 20:31S 29°53' E 031°01'0 0.0
2015-Feb-28 19:31S 29°53' E 031°01'0 0.0
2015-Feb-28 18:18S 29°53' E 031°01'0 0.0
2015-Feb-28 17:30S 29°53' E 031°01'0 0.0
2015-Feb-28 16:29S 29°53' E 031°01'0 0.0
2015-Feb-28 15:29S 29°53' E 031°01'0 0.0
2015-Feb-28 14:28S 29°53' E 031°01'0 0.0
2015-Feb-28 13:28S 29°53' E 031°01'0 0.0
2015-Feb-28 12:28S 29°53' E 031°01'0 0.0
2015-Feb-28 11:33S 29°53' E 031°01'0 0.0
2015-Feb-28 10:33S 29°53' E 031°01'0 0.0
2015-Feb-28 09:32S 29°53' E 031°01'0 0.0
2015-Feb-28 08:32S 29°53' E 031°01'0 0.0
2015-Feb-28 07:31S 29°53' E 031°01'0 0.0
2015-Feb-28 06:31S 29°53' E 031°01'0 0.0
2015-Feb-28 05:30S 29°53' E 031°01'0 0.0
2015-Feb-28 04:30S 29°53' E 031°01'0 0.0
2015-Feb-28 03:30S 29°53' E 031°01'0 0.0
2015-Feb-28 02:29S 29°53' E 031°01'0 0.0
2015-Feb-28 01:29S 29°53' E 031°01'0 0.0
2015-Feb-28 00:28S 29°53' E 031°01'0 0.0
2015-Feb-27 23:28S 29°53' E 031°01'0 0.0
2015-Feb-27 22:33S 29°53' E 031°01'0 0.0
2015-Feb-27 21:33S 29°53' E 031°01'0 0.0
2015-Feb-27 20:33S 29°53' E 031°01'0 0.0
2015-Feb-27 19:32S 29°53' E 031°01'0 0.0
2015-Feb-27 18:32S 29°53' E 031°01'0 0.0
2015-Feb-27 17:31S 29°53' E 031°01'0 0.0
2015-Feb-27 16:31S 29°53' E 031°01'0 0.0
2015-Feb-27 15:30S 29°53' E 031°01'0 0.1
2015-Feb-27 14:33S 29°53' E 031°01'0 0.4
2015-Feb-27 13:33S 29°53' E 031°01'0 0.0
2015-Feb-27 12:31S 29°53' E 031°01'0 0.0
2015-Feb-27 11:30S 29°53' E 031°01'0 0.0
2015-Feb-27 10:30S 29°53' E 031°01'0 0.0
2015-Feb-27 09:29S 29°53' E 031°01'0 0.0
2015-Feb-27 08:29S 29°53' E 031°01'0 0.0
2015-Feb-27 07:29S 29°53' E 031°01'0 0.0
2015-Feb-27 06:28S 29°53' E 031°01'0 0.0
2015-Feb-27 05:28S 29°53' E 031°01'0 0.0
2015-Feb-27 04:33S 29°53' E 031°01'0 0.0
2015-Feb-27 03:33S 29°53' E 031°01'0 0.0
2015-Feb-27 02:32S 29°53' E 031°01'0 0.0
2015-Feb-27 01:32S 29°53' E 031°01'0 0.0
2015-Feb-27 00:25S 29°53' E 031°01'0 0.0
2015-Feb-26 23:31S 29°53' E 031°01'0 0.0
2015-Feb-26 22:31S 29°53' E 031°01'0 0.0
2015-Feb-26 21:31S 29°53' E 031°01'0 0.0
2015-Feb-26 20:30S 29°53' E 031°01'0 0.0
2015-Feb-26 19:29S 29°53' E 031°01'0 0.0
2015-Feb-26 18:29S 29°53' E 031°01'0 0.0
2015-Feb-26 17:32S 29°53' E 031°01'0 0.0
2015-Feb-26 11:31S 29°53' E 031°01'0 0.0
2015-Feb-26 10:31S 29°53' E 031°01'0 0.0
2015-Feb-26 09:30S 29°53' E 031°01'0 0.0
2015-Feb-26 08:30S 29°53' E 031°01'0 0.0
2015-Feb-26 07:33S 29°53' E 031°01'4 4.4
2015-Feb-26 06:33S 29°50' E 031°05'3 3.0
2015-Feb-26 05:33S 29°50' E 031°08'4 4.3
2015-Feb-26 04:33S 29°55' E 031°08'1 1.4
2015-Feb-26 03:33S 29°54' E 031°09'1 1.3
2015-Feb-26 02:33S 29°53' E 031°10'1 1.2
2015-Feb-26 01:33S 29°52' E 031°11'1 1.2
2015-Feb-26 00:33S 29°51' E 031°12'1 1.2
2015-Feb-25 23:33S 29°50' E 031°13'1 1.0
2015-Feb-25 22:33S 29°50' E 031°14'1 0.7
2015-Feb-25 21:33S 29°50' E 031°15'0 0.4
2015-Feb-25 20:33S 29°49' E 031°16'2 1.7
2015-Feb-25 19:33S 29°50' E 031°14'6 6.3
2015-Feb-25 18:33S 29°56' E 031°11'3 3.1
2015-Feb-25 17:33S 29°59' E 031°10'1 1.4
2015-Feb-25 16:33S 29°58' E 031°11'1 1.3
2015-Feb-25 15:33S 29°57' E 031°12'1 1.4
2015-Feb-25 14:33S 29°56' E 031°13'1 1.5
2015-Feb-25 13:33S 29°55' E 031°14'2 1.5
2015-Feb-25 12:33S 29°54' E 031°15'1 1.5
2015-Feb-25 11:33S 29°52' E 031°16'1 1.0
2015-Feb-25 10:33S 29°52' E 031°15'1 1.2
2015-Feb-25 09:33S 29°52' E 031°14'4 3.7
2015-Feb-25 08:33S 29°56' E 031°11'2 1.8
2015-Feb-25 07:33S 29°54' E 031°12'2 1.5
2015-Feb-25 06:33S 29°53' E 031°13'2 1.6
2015-Feb-25 05:33S 29°51' E 031°14'1 1.3
2015-Feb-25 04:33S 29°50' E 031°15'1 1.0
2015-Feb-25 03:33S 29°51' E 031°14'1313.3
2015-Feb-25 02:33S 30°01' E 031°05'1515.5
2015-Feb-25 01:33S 30°16' E 030°59'34113.6
2015-Feb-24 00:29S 33°55' E 025°51'  

Dump ship's entire track history